sensor_id;sensor_type;location;lat;lon;timestamp;pressure;altitude;pressure_sealevel;temperature;humidity
77171;BME280;66144;50.020;14.422;2023-03-01T00:01:21;100067.06;;;-1.30;68.44
77171;BME280;66144;50.020;14.422;2023-03-01T00:03:47;100069.63;;;-1.30;68.69
77171;BME280;66144;50.020;14.422;2023-03-01T00:06:13;100071.00;;;-1.36;68.55
77171;BME280;66144;50.020;14.422;2023-03-01T00:08:38;100071.81;;;-1.35;69.09
77171;BME280;66144;50.020;14.422;2023-03-01T00:13:29;100068.28;;;-1.34;68.48
77171;BME280;66144;50.020;14.422;2023-03-01T00:15:55;100064.53;;;-1.40;68.64
77171;BME280;66144;50.020;14.422;2023-03-01T00:18:20;100069.53;;;-1.48;69.46
77171;BME280;66144;50.020;14.422;2023-03-01T00:20:54;100064.41;;;-1.48;69.27
77171;BME280;66144;50.020;14.422;2023-03-01T00:23:20;100070.34;;;-1.48;69.59
77171;BME280;66144;50.020;14.422;2023-03-01T00:25:45;100070.72;;;-1.52;69.01
77171;BME280;66144;50.020;14.422;2023-03-01T00:28:11;100067.53;;;-1.54;69.68
77171;BME280;66144;50.020;14.422;2023-03-01T00:30:36;100072.78;;;-1.56;69.02
77171;BME280;66144;50.020;14.422;2023-03-01T00:33:02;100063.63;;;-1.58;69.54
77171;BME280;66144;50.020;14.422;2023-03-01T00:35:27;100057.69;;;-1.59;69.52
77171;BME280;66144;50.020;14.422;2023-03-01T00:37:53;100052.81;;;-1.62;69.09
77171;BME280;66144;50.020;14.422;2023-03-01T00:40:18;100045.41;;;-1.65;69.50
77171;BME280;66144;50.020;14.422;2023-03-01T00:42:44;100050.66;;;-1.66;69.54
77171;BME280;66144;50.020;14.422;2023-03-01T00:45:09;100046.34;;;-1.66;70.11
77171;BME280;66144;50.020;14.422;2023-03-01T00:47:35;100044.88;;;-1.68;69.54
77171;BME280;66144;50.020;14.422;2023-03-01T00:50:00;100039.88;;;-1.70;69.70
77171;BME280;66144;50.020;14.422;2023-03-01T00:52:25;100046.63;;;-1.69;69.75
77171;BME280;66144;50.020;14.422;2023-03-01T00:54:52;100039.75;;;-1.68;69.80
77171;BME280;66144;50.020;14.422;2023-03-01T00:57:18;100041.13;;;-1.74;69.85
77171;BME280;66144;50.020;14.422;2023-03-01T00:59:43;100042.72;;;-1.73;69.85
77171;BME280;66144;50.020;14.422;2023-03-01T01:02:09;100040.16;;;-1.73;69.49
77171;BME280;66144;50.020;14.422;2023-03-01T01:04:34;100037.06;;;-1.77;69.72
77171;BME280;66144;50.020;14.422;2023-03-01T01:06:59;100040.56;;;-1.78;69.12
77171;BME280;66144;50.020;14.422;2023-03-01T01:09:25;100042.59;;;-1.81;69.63
77171;BME280;66144;50.020;14.422;2023-03-01T01:11:50;100036.78;;;-1.83;70.02
77171;BME280;66144;50.020;14.422;2023-03-01T01:14:17;100028.44;;;-1.85;70.10
77171;BME280;66144;50.020;14.422;2023-03-01T01:16:42;100028.69;;;-1.88;69.95
77171;BME280;66144;50.020;14.422;2023-03-01T01:19:10;100020.34;;;-1.90;70.02
77171;BME280;66144;50.020;14.422;2023-03-01T01:21:35;100016.47;;;-1.94;69.79
77171;BME280;66144;50.020;14.422;2023-03-01T01:24:03;100014.44;;;-2.00;70.11
77171;BME280;66144;50.020;14.422;2023-03-01T01:26:32;100007.44;;;-1.98;70.32
77171;BME280;66144;50.020;14.422;2023-03-01T01:28:58;100010.66;;;-1.96;70.34
77171;BME280;66144;50.020;14.422;2023-03-01T01:31:25;100016.56;;;-2.05;70.81
77171;BME280;66144;50.020;14.422;2023-03-01T01:33:52;100017.09;;;-2.12;70.69
77171;BME280;66144;50.020;14.422;2023-03-01T01:36:18;100008.78;;;-2.14;71.19
77171;BME280;66144;50.020;14.422;2023-03-01T01:38:43;100005.00;;;-2.10;71.27
77171;BME280;66144;50.020;14.422;2023-03-01T01:41:10;100013.75;;;-2.12;70.81
77171;BME280;66144;50.020;14.422;2023-03-01T01:43:42;100015.22;;;-2.10;70.77
77171;BME280;66144;50.020;14.422;2023-03-01T01:48:49;100005.28;;;-2.13;70.48
77171;BME280;66144;50.020;14.422;2023-03-01T01:51:24;100008.47;;;-2.11;71.35
77171;BME280;66144;50.020;14.422;2023-03-01T01:53:54;99998.25;;;-2.11;70.48
77171;BME280;66144;50.020;14.422;2023-03-01T01:56:22;100002.56;;;-2.11;70.90
77171;BME280;66144;50.020;14.422;2023-03-01T01:58:49;100001.09;;;-2.14;70.86
77171;BME280;66144;50.020;14.422;2023-03-01T02:01:15;100002.03;;;-2.15;71.10
77171;BME280;66144;50.020;14.422;2023-03-01T02:03:42;99999.50;;;-2.15;71.15
77171;BME280;66144;50.020;14.422;2023-03-01T02:08:37;99994.91;;;-2.21;71.08
77171;BME280;66144;50.020;14.422;2023-03-01T02:11:04;100000.28;;;-2.24;71.42
77171;BME280;66144;50.020;14.422;2023-03-01T02:13:31;100002.03;;;-2.24;71.37
77171;BME280;66144;50.020;14.422;2023-03-01T02:15:58;99997.03;;;-2.26;71.50
77171;BME280;66144;50.020;14.422;2023-03-01T02:18:24;99993.66;;;-2.26;71.65
77171;BME280;66144;50.020;14.422;2023-03-01T02:21:05;99994.22;;;-2.23;71.86
77171;BME280;66144;50.020;14.422;2023-03-01T02:23:33;99985.06;;;-2.25;71.54
77171;BME280;66144;50.020;14.422;2023-03-01T02:28:50;99975.88;;;-2.28;71.94
77171;BME280;66144;50.020;14.422;2023-03-01T02:31:18;99969.16;;;-2.29;71.31
77171;BME280;66144;50.020;14.422;2023-03-01T02:34:03;99976.16;;;-2.31;71.75
77171;BME280;66144;50.020;14.422;2023-03-01T02:36:51;99969.16;;;-2.29;71.60
77171;BME280;66144;50.020;14.422;2023-03-01T02:39:23;99981.28;;;-2.31;71.23
77171;BME280;66144;50.020;14.422;2023-03-01T02:41:52;99981.44;;;-2.32;71.74
77171;BME280;66144;50.020;14.422;2023-03-01T02:44:18;99980.63;;;-2.33;71.41
77171;BME280;66144;50.020;14.422;2023-03-01T02:46:52;99990.72;;;-2.31;71.46
77171;BME280;66144;50.020;14.422;2023-03-01T02:49:31;99982.25;;;-2.32;71.47
77171;BME280;66144;50.020;14.422;2023-03-01T02:54:58;99982.50;;;-2.35;71.43
77171;BME280;66144;50.020;14.422;2023-03-01T02:57:26;99978.59;;;-2.39;71.52
77171;BME280;66144;50.020;14.422;2023-03-01T02:59:54;99983.03;;;-2.41;71.51
77171;BME280;66144;50.020;14.422;2023-03-01T03:02:21;99983.03;;;-2.41;71.50
77171;BME280;66144;50.020;14.422;2023-03-01T03:05:04;99980.47;;;-2.41;71.08
77171;BME280;66144;50.020;14.422;2023-03-01T03:07:32;99974.66;;;-2.43;71.11
77171;BME280;66144;50.020;14.422;2023-03-01T03:09:58;99978.31;;;-2.46;71.69
77171;BME280;66144;50.020;14.422;2023-03-01T03:12:24;99968.63;;;-2.52;71.96
77171;BME280;66144;50.020;14.422;2023-03-01T03:14:49;99967.38;;;-2.48;72.00
77171;BME280;66144;50.020;14.422;2023-03-01T03:17:14;99975.19;;;-2.49;71.64
77171;BME280;66144;50.020;14.422;2023-03-01T03:19:40;99978.44;;;-2.47;71.51
77171;BME280;66144;50.020;14.422;2023-03-01T03:22:05;99976.13;;;-2.50;71.50
77171;BME280;66144;50.020;14.422;2023-03-01T03:24:30;99974.38;;;-2.50;71.42
77171;BME280;66144;50.020;14.422;2023-03-01T03:27:06;99964.31;;;-2.51;71.33
77171;BME280;66144;50.020;14.422;2023-03-01T03:29:32;99966.06;;;-2.52;71.86
77171;BME280;66144;50.020;14.422;2023-03-01T03:31:58;99964.31;;;-2.51;71.56
77171;BME280;66144;50.020;14.422;2023-03-01T03:34:23;99954.59;;;-2.57;71.95
77171;BME280;66144;50.020;14.422;2023-03-01T03:36:53;99960.41;;;-2.55;71.79
77171;BME280;66144;50.020;14.422;2023-03-01T03:39:23;99954.75;;;-2.59;71.10
77171;BME280;66144;50.020;14.422;2023-03-01T03:41:48;99947.88;;;-2.58;72.01
77171;BME280;66144;50.020;14.422;2023-03-01T03:44:13;99953.00;;;-2.58;71.34
77171;BME280;66144;50.020;14.422;2023-03-01T03:46:39;99954.75;;;-2.59;71.89
77171;BME280;66144;50.020;14.422;2023-03-01T03:49:04;99954.88;;;-2.60;71.78
77171;BME280;66144;50.020;14.422;2023-03-01T03:51:29;99946.50;;;-2.62;72.32
77171;BME280;66144;50.020;14.422;2023-03-01T03:53:55;99948.94;;;-2.61;72.00
77171;BME280;66144;50.020;14.422;2023-03-01T03:56:20;99949.19;;;-2.64;71.77
77171;BME280;66144;50.020;14.422;2023-03-01T03:58:51;99950.81;;;-2.63;71.92
77171;BME280;66144;50.020;14.422;2023-03-01T04:01:16;99952.56;;;-2.63;71.42
77171;BME280;66144;50.020;14.422;2023-03-01T04:03:41;99951.09;;;-2.66;71.33
77171;BME280;66144;50.020;14.422;2023-03-01T04:06:11;99956.06;;;-2.64;71.33
77171;BME280;66144;50.020;14.422;2023-03-01T04:08:37;99950.41;;;-2.68;71.83
77171;BME280;66144;50.020;14.422;2023-03-01T04:11:04;99956.44;;;-2.69;71.90
77171;BME280;66144;50.020;14.422;2023-03-01T04:13:50;99948.94;;;-2.70;71.79
77171;BME280;66144;50.020;14.422;2023-03-01T04:16:16;99959.16;;;-2.70;71.16
77171;BME280;66144;50.020;14.422;2023-03-01T04:18:42;99956.63;;;-2.70;72.06
77171;BME280;66144;50.020;14.422;2023-03-01T04:21:08;99959.44;;;-2.73;71.80
77171;BME280;66144;50.020;14.422;2023-03-01T04:23:33;99951.06;;;-2.75;71.44
77171;BME280;66144;50.020;14.422;2023-03-01T04:25:59;99955.38;;;-2.76;72.03
77171;BME280;66144;50.020;14.422;2023-03-01T04:28:33;99952.28;;;-2.80;71.32
77171;BME280;66144;50.020;14.422;2023-03-01T04:31:03;99947.41;;;-2.83;72.15
77171;BME280;66144;50.020;14.422;2023-03-01T04:33:54;99943.38;;;-2.85;71.98
77171;BME280;66144;50.020;14.422;2023-03-01T04:36:22;99940.94;;;-2.87;72.09
77171;BME280;66144;50.020;14.422;2023-03-01T04:38:48;99947.81;;;-2.87;72.05
77171;BME280;66144;50.020;14.422;2023-03-01T04:41:16;99952.78;;;-2.86;72.28
77171;BME280;66144;50.020;14.422;2023-03-01T04:43:42;99960.44;;;-2.86;72.53
77171;BME280;66144;50.020;14.422;2023-03-01T04:46:15;99963.13;;;-2.87;72.04
77171;BME280;66144;50.020;14.422;2023-03-01T04:48:41;99964.22;;;-2.90;72.34
77171;BME280;66144;50.020;14.422;2023-03-01T04:51:07;99964.34;;;-2.91;72.29
77171;BME280;66144;50.020;14.422;2023-03-01T04:53:34;99957.50;;;-2.91;72.22
77171;BME280;66144;50.020;14.422;2023-03-01T04:56:02;99960.31;;;-2.94;72.36
77171;BME280;66144;50.020;14.422;2023-03-01T04:58:28;99961.94;;;-2.93;71.81
77171;BME280;66144;50.020;14.422;2023-03-01T05:00:54;99964.22;;;-2.90;72.16
77171;BME280;66144;50.020;14.422;2023-03-01T05:03:20;99961.94;;;-2.93;72.59
77171;BME280;66144;50.020;14.422;2023-03-01T05:05:47;99961.94;;;-2.93;72.08
77171;BME280;66144;50.020;14.422;2023-03-01T05:08:13;99962.06;;;-2.94;72.33
77171;BME280;66144;50.020;14.422;2023-03-01T05:10:48;99960.69;;;-2.98;72.50
77171;BME280;66144;50.020;14.422;2023-03-01T05:13:14;99959.88;;;-2.99;72.25
77171;BME280;66144;50.020;14.422;2023-03-01T05:15:47;99965.81;;;-2.98;71.87
77171;BME280;66144;50.020;14.422;2023-03-01T05:18:12;99968.63;;;-3.01;71.78
77171;BME280;66144;50.020;14.422;2023-03-01T05:20:37;99961.06;;;-3.03;71.80
77171;BME280;66144;50.020;14.422;2023-03-01T05:23:03;99958.53;;;-3.03;72.40
77171;BME280;66144;50.020;14.422;2023-03-01T05:25:31;99955.28;;;-3.05;71.54
77171;BME280;66144;50.020;14.422;2023-03-01T05:27:59;99954.59;;;-3.07;72.10
77171;BME280;66144;50.020;14.422;2023-03-01T05:30:30;99952.03;;;-3.07;72.05
77171;BME280;66144;50.020;14.422;2023-03-01T05:32:55;99954.75;;;-3.08;71.48
77171;BME280;66144;50.020;14.422;2023-03-01T05:35:21;99953.41;;;-3.13;71.48
77171;BME280;66144;50.020;14.422;2023-03-01T05:37:47;99955.13;;;-3.13;71.46
77171;BME280;66144;50.020;14.422;2023-03-01T05:40:19;99944.63;;;-3.20;71.76
77171;BME280;66144;50.020;14.422;2023-03-01T05:42:50;99941.63;;;-3.25;71.60
77171;BME280;66144;50.020;14.422;2023-03-01T05:45:16;99944.06;;;-3.23;71.79
77171;BME280;66144;50.020;14.422;2023-03-01T05:47:44;99943.25;;;-3.24;72.29
77171;BME280;66144;50.020;14.422;2023-03-01T05:52:39;99937.19;;;-3.32;72.15
77171;BME280;66144;50.020;14.422;2023-03-01T05:55:05;99941.22;;;-3.30;73.06
77171;BME280;66144;50.020;14.422;2023-03-01T05:57:30;99942.03;;;-3.29;72.73
77171;BME280;66144;50.020;14.422;2023-03-01T05:59:56;99942.03;;;-3.29;73.12
77171;BME280;66144;50.020;14.422;2023-03-01T06:02:21;99950.22;;;-3.26;72.14
77171;BME280;66144;50.020;14.422;2023-03-01T06:04:46;99945.94;;;-3.25;72.76
77171;BME280;66144;50.020;14.422;2023-03-01T06:07:12;99942.19;;;-3.21;72.88
77171;BME280;66144;50.020;14.422;2023-03-01T06:09:37;99940.69;;;-3.24;72.55
77171;BME280;66144;50.020;14.422;2023-03-01T06:12:03;99941.50;;;-3.23;72.82
77171;BME280;66144;50.020;14.422;2023-03-01T06:14:28;99941.13;;;-3.19;72.30
77171;BME280;66144;50.020;14.422;2023-03-01T06:16:53;99936.28;;;-3.22;72.51
77171;BME280;66144;50.020;14.422;2023-03-01T06:19:19;99934.03;;;-3.15;72.56
77171;BME280;66144;50.020;14.422;2023-03-01T06:21:44;99939.81;;;-3.13;71.88
77171;BME280;66144;50.020;14.422;2023-03-01T06:24:10;99954.47;;;-3.15;73.06
77171;BME280;66144;50.020;14.422;2023-03-01T06:26:35;99950.19;;;-3.05;73.15
77171;BME280;66144;50.020;14.422;2023-03-01T06:29:01;99952.03;;;-3.07;73.00
77171;BME280;66144;50.020;14.422;2023-03-01T06:31:26;99949.53;;;-2.97;72.79
77171;BME280;66144;50.020;14.422;2023-03-01T06:33:51;99952.66;;;-2.94;72.67
77171;BME280;66144;50.020;14.422;2023-03-01T06:36:17;99944.59;;;-2.89;72.13
77171;BME280;66144;50.020;14.422;2023-03-01T06:38:44;99942.19;;;-2.81;72.43
77171;BME280;66144;50.020;14.422;2023-03-01T06:41:09;99934.13;;;-2.76;72.38
77171;BME280;66144;50.020;14.422;2023-03-01T06:43:35;99936.81;;;-2.68;72.03
77171;BME280;66144;50.020;14.422;2023-03-01T06:46:04;99931.03;;;-2.61;72.35
77171;BME280;66144;50.020;14.422;2023-03-01T06:48:29;99929.84;;;-2.47;72.89
77171;BME280;66144;50.020;14.422;2023-03-01T06:50:58;99931.06;;;-2.22;72.05
77171;BME280;66144;50.020;14.422;2023-03-01T06:53:23;99934.41;;;-2.02;71.86
77171;BME280;66144;50.020;14.422;2023-03-01T06:55:54;99926.84;;;-1.85;71.20
77171;BME280;66144;50.020;14.422;2023-03-01T06:58:19;99930.84;;;-1.63;70.55
77171;BME280;66144;50.020;14.422;2023-03-01T07:00:45;99934.81;;;-1.41;69.78
77171;BME280;66144;50.020;14.422;2023-03-01T07:03:10;99934.97;;;-1.15;69.54
77171;BME280;66144;50.020;14.422;2023-03-01T07:05:35;99928.34;;;-0.81;68.33
77171;BME280;66144;50.020;14.422;2023-03-01T07:08:01;99934.16;;;-0.43;67.15
77171;BME280;66144;50.020;14.422;2023-03-01T07:10:26;99941.91;;;-0.17;66.40
77171;BME280;66144;50.020;14.422;2023-03-01T07:12:56;99941.72;;;0.20;65.02
77171;BME280;66144;50.020;14.422;2023-03-01T07:15:22;99936.63;;;0.54;63.44
77171;BME280;66144;50.020;14.422;2023-03-01T07:17:48;99935.97;;;0.86;62.62
77171;BME280;66144;50.020;14.422;2023-03-01T07:20:16;99938.50;;;1.20;62.76
77171;BME280;66144;50.020;14.422;2023-03-01T07:22:42;99935.88;;;1.54;61.31
77171;BME280;66144;50.020;14.422;2023-03-01T07:25:09;99941.34;;;1.83;60.80
77171;BME280;66144;50.020;14.422;2023-03-01T07:27:35;99939.09;;;1.88;58.43
77171;BME280;66144;50.020;14.422;2023-03-01T07:30:02;99937.91;;;2.39;59.53
77171;BME280;66144;50.020;14.422;2023-03-01T07:32:27;99947.69;;;2.68;58.00
77171;BME280;66144;50.020;14.422;2023-03-01T07:34:53;99938.84;;;3.02;57.83
77171;BME280;66144;50.020;14.422;2023-03-01T07:37:18;99936.16;;;3.26;56.35
77171;BME280;66144;50.020;14.422;2023-03-01T07:39:43;99935.81;;;3.29;56.23
77171;BME280;66144;50.020;14.422;2023-03-01T07:42:09;99935.31;;;3.34;55.11
77171;BME280;66144;50.020;14.422;2023-03-01T07:44:34;99934.28;;;3.66;55.02
77171;BME280;66144;50.020;14.422;2023-03-01T07:47:00;99938.47;;;3.44;54.55
77171;BME280;66144;50.020;14.422;2023-03-01T07:49:25;99936.50;;;3.23;55.33
77171;BME280;66144;50.020;14.422;2023-03-01T07:51:54;99940.31;;;3.58;54.14
77171;BME280;66144;50.020;14.422;2023-03-01T07:54:19;99937.28;;;4.00;53.44
77171;BME280;66144;50.020;14.422;2023-03-01T07:56:44;99931.25;;;4.23;52.95
77171;BME280;66144;50.020;14.422;2023-03-01T07:59:10;99935.38;;;3.94;52.35
77171;BME280;66144;50.020;14.422;2023-03-01T08:01:35;99934.91;;;3.68;53.67
77171;BME280;66144;50.020;14.422;2023-03-01T08:04:00;99934.19;;;3.82;53.28
77171;BME280;66144;50.020;14.422;2023-03-01T08:06:27;99934.53;;;4.16;52.88
77171;BME280;66144;50.020;14.422;2023-03-01T08:08:52;99935.28;;;4.40;51.92
77171;BME280;66144;50.020;14.422;2023-03-01T08:11:20;99927.06;;;4.66;51.95
77171;BME280;66144;50.020;14.422;2023-03-01T08:13:48;99912.63;;;4.71;50.73
77171;BME280;66144;50.020;14.422;2023-03-01T08:16:15;99919.22;;;4.74;50.76
77171;BME280;66144;50.020;14.422;2023-03-01T08:18:41;99909.94;;;4.94;50.00
77171;BME280;66144;50.020;14.422;2023-03-01T08:21:12;99911.22;;;5.19;49.99
77171;BME280;66144;50.020;14.422;2023-03-01T08:23:38;99911.81;;;4.85;49.81
77171;BME280;66144;50.020;14.422;2023-03-01T08:26:04;99912.63;;;4.71;50.47
77171;BME280;66144;50.020;14.422;2023-03-01T08:28:31;99914.06;;;4.59;50.20
77171;BME280;66144;50.020;14.422;2023-03-01T08:30:56;99924.16;;;3.64;51.90
77171;BME280;66144;50.020;14.422;2023-03-01T08:33:22;99924.88;;;3.73;53.17
77171;BME280;66144;50.020;14.422;2023-03-01T08:35:47;99921.44;;;3.58;52.30
77171;BME280;66144;50.020;14.422;2023-03-01T08:38:12;99921.56;;;3.41;53.42
77171;BME280;66144;50.020;14.422;2023-03-01T08:40:38;99923.19;;;3.65;53.14
77171;BME280;66144;50.020;14.422;2023-03-01T08:43:03;99922.28;;;3.73;54.82
77171;BME280;66144;50.020;14.422;2023-03-01T08:45:28;99924.81;;;3.58;52.98
77171;BME280;66144;50.020;14.422;2023-03-01T08:47:54;99915.44;;;3.65;53.28
77171;BME280;66144;50.020;14.422;2023-03-01T08:50:19;99912.22;;;3.63;55.08
77171;BME280;66144;50.020;14.422;2023-03-01T08:52:44;99907.56;;;3.59;53.59
77171;BME280;66144;50.020;14.422;2023-03-01T08:55:10;99907.34;;;3.45;53.52
77171;BME280;66144;50.020;14.422;2023-03-01T08:57:35;99905.59;;;3.61;53.71
77171;BME280;66144;50.020;14.422;2023-03-01T09:00:00;99907.88;;;3.56;53.48
77171;BME280;66144;50.020;14.422;2023-03-01T09:02:26;99898.56;;;3.46;54.20
77171;BME280;66144;50.020;14.422;2023-03-01T09:04:51;99891.59;;;3.55;53.92
77171;BME280;66144;50.020;14.422;2023-03-01T09:07:16;99890.97;;;3.53;53.10
77171;BME280;66144;50.020;14.422;2023-03-01T09:09:41;99884.81;;;3.54;53.67
77171;BME280;66144;50.020;14.422;2023-03-01T09:12:07;99888.06;;;3.71;53.96
77171;BME280;66144;50.020;14.422;2023-03-01T09:14:32;99885.59;;;3.77;53.33
77171;BME280;66144;50.020;14.422;2023-03-01T09:16:57;99882.56;;;3.74;53.69
77171;BME280;66144;50.020;14.422;2023-03-01T09:19:23;99884.38;;;3.88;52.85
77171;BME280;66144;50.020;14.422;2023-03-01T09:21:48;99874.16;;;3.95;52.67
77171;BME280;66144;50.020;14.422;2023-03-01T09:24:22;99868.38;;;4.07;52.22
77171;BME280;66144;50.020;14.422;2023-03-01T09:26:48;99864.44;;;4.11;50.87
77171;BME280;66144;50.020;14.422;2023-03-01T09:29:14;99858.75;;;4.31;50.72
77171;BME280;66144;50.020;14.422;2023-03-01T09:31:40;99863.41;;;4.21;49.94
77171;BME280;66144;50.020;14.422;2023-03-01T09:34:06;99857.88;;;4.53;49.72
77171;BME280;66144;50.020;14.422;2023-03-01T09:36:31;99854.19;;;4.47;49.04
77171;BME280;66144;50.020;14.422;2023-03-01T09:38:57;99848.06;;;4.34;48.75
77171;BME280;66144;50.020;14.422;2023-03-01T09:41:42;99850.84;;;4.83;49.19
77171;BME280;66144;50.020;14.422;2023-03-01T09:44:18;99849.38;;;5.31;47.42
77171;BME280;66144;50.020;14.422;2023-03-01T09:46:46;99838.63;;;6.05;46.35
77171;BME280;66144;50.020;14.422;2023-03-01T09:49:12;99842.13;;;6.66;44.54
77171;BME280;66144;50.020;14.422;2023-03-01T09:51:46;99828.31;;;7.26;42.22
77171;BME280;66144;50.020;14.422;2023-03-01T09:54:14;99830.31;;;7.97;41.61
77171;BME280;66144;50.020;14.422;2023-03-01T09:59:33;99818.72;;;9.33;39.34
77171;BME280;66144;50.020;14.422;2023-03-01T10:04:50;99818.81;;;10.68;35.76
77171;BME280;66144;50.020;14.422;2023-03-01T10:09:53;99808.00;;;10.64;36.04
77171;BME280;66144;50.020;14.422;2023-03-01T10:12:22;99806.75;;;11.15;35.39
77171;BME280;66144;50.020;14.422;2023-03-01T10:15:14;99808.78;;;11.25;34.71
77171;BME280;66144;50.020;14.422;2023-03-01T10:17:48;99799.75;;;11.97;33.75
77171;BME280;66144;50.020;14.422;2023-03-01T10:22:49;99796.09;;;12.22;32.46
77171;BME280;66144;50.020;14.422;2023-03-01T10:28:20;99784.03;;;13.06;30.86
77171;BME280;66144;50.020;14.422;2023-03-01T10:30:49;99774.50;;;13.67;30.65
77171;BME280;66144;50.020;14.422;2023-03-01T10:33:21;99774.81;;;13.70;31.08
77171;BME280;66144;50.020;14.422;2023-03-01T10:35:47;99783.50;;;14.31;29.59
77171;BME280;66144;50.020;14.422;2023-03-01T10:38:15;99781.94;;;14.79;28.76
77171;BME280;66144;50.020;14.422;2023-03-01T10:40:51;99775.97;;;15.15;28.29
77171;BME280;66144;50.020;14.422;2023-03-01T10:43:18;99773.97;;;15.65;27.94
77171;BME280;66144;50.020;14.422;2023-03-01T10:45:44;99764.00;;;15.35;27.44
77171;BME280;66144;50.020;14.422;2023-03-01T10:48:26;99764.00;;;15.35;27.12
77171;BME280;66144;50.020;14.422;2023-03-01T10:56:14;99754.19;;;16.09;26.18
77171;BME280;66144;50.020;14.422;2023-03-01T10:58:56;99739.13;;;17.08;25.88
77171;BME280;66144;50.020;14.422;2023-03-01T11:06:31;99740.81;;;16.31;25.85
77171;BME280;66144;50.020;14.422;2023-03-01T11:09:13;99739.78;;;16.42;24.71
77171;BME280;66144;50.020;14.422;2023-03-01T11:11:39;99746.31;;;16.24;25.46
77171;BME280;66144;50.020;14.422;2023-03-01T11:14:13;99733.03;;;17.02;25.20
77171;BME280;66144;50.020;14.422;2023-03-01T11:16:42;99732.50;;;17.31;25.01
77171;BME280;66144;50.020;14.422;2023-03-01T11:21:36;99720.09;;;16.75;25.28
77171;BME280;66144;50.020;14.422;2023-03-01T11:24:04;99714.41;;;16.21;25.30
77171;BME280;66144;50.020;14.422;2023-03-01T11:26:34;99717.13;;;16.46;25.48
77171;BME280;66144;50.020;14.422;2023-03-01T11:29:05;99717.47;;;16.96;25.15
77171;BME280;66144;50.020;14.422;2023-03-01T11:31:32;99708.16;;;16.57;25.27
77171;BME280;66144;50.020;14.422;2023-03-01T11:34:19;99703.44;;;17.36;24.05
77171;BME280;66144;50.020;14.422;2023-03-01T11:36:59;99703.88;;;17.73;24.24
77171;BME280;66144;50.020;14.422;2023-03-01T11:39:38;99703.47;;;16.95;24.78
77171;BME280;66144;50.020;14.422;2023-03-01T11:42:15;99700.72;;;17.71;24.60
77171;BME280;66144;50.020;14.422;2023-03-01T11:44:43;99704.25;;;18.16;23.18
77171;BME280;66144;50.020;14.422;2023-03-01T11:49:55;99694.28;;;18.86;22.73
77171;BME280;66144;50.020;14.422;2023-03-01T11:58:26;99688.00;;;18.33;23.50
77171;BME280;66144;50.020;14.422;2023-03-01T12:01:07;99685.88;;;18.40;23.97
77171;BME280;66144;50.020;14.422;2023-03-01T12:12:35;99668.66;;;18.81;23.43
77171;BME280;66144;50.020;14.422;2023-03-01T12:20:51;99664.88;;;19.16;22.79
77171;BME280;66144;50.020;14.422;2023-03-01T12:25:55;99651.81;;;19.49;23.13
77171;BME280;66144;50.020;14.422;2023-03-01T12:29:02;99641.31;;;18.86;23.26
77171;BME280;66144;50.020;14.422;2023-03-01T12:34:20;99637.03;;;20.09;21.95
77171;BME280;66144;50.020;14.422;2023-03-01T12:39:59;99627.19;;;20.47;21.50
77171;BME280;66144;50.020;14.422;2023-03-01T12:45:34;99627.69;;;19.74;22.40
77171;BME280;66144;50.020;14.422;2023-03-01T12:48:35;99624.38;;;19.16;22.04
77171;BME280;66144;50.020;14.422;2023-03-01T12:51:06;99628.75;;;19.02;22.41
77171;BME280;66144;50.020;14.422;2023-03-01T12:53:36;99622.94;;;18.71;22.74
77171;BME280;66144;50.020;14.422;2023-03-01T12:56:11;99626.25;;;18.52;23.29
77171;BME280;66144;50.020;14.422;2023-03-01T12:58:55;99622.13;;;18.75;23.28
77171;BME280;66144;50.020;14.422;2023-03-01T13:12:52;99608.81;;;18.12;22.77
77171;BME280;66144;50.020;14.422;2023-03-01T13:15:37;99597.44;;;17.63;23.20
77171;BME280;66144;50.020;14.422;2023-03-01T13:31:00;99612.25;;;13.91;29.07
77171;BME280;66144;50.020;14.422;2023-03-01T13:33:33;99592.63;;;13.71;29.26
77171;BME280;66144;50.020;14.422;2023-03-01T13:36:00;99596.47;;;13.20;30.50
77171;BME280;66144;50.020;14.422;2023-03-01T13:41:10;99591.88;;;12.77;31.65
77171;BME280;66144;50.020;14.422;2023-03-01T13:43:37;99594.28;;;12.62;32.13
77171;BME280;66144;50.020;14.422;2023-03-01T13:46:17;99605.75;;;11.70;33.23
77171;BME280;66144;50.020;14.422;2023-03-01T13:48:50;99604.34;;;11.16;34.28
77171;BME280;66144;50.020;14.422;2023-03-01T13:51:16;99606.75;;;10.83;34.72
77171;BME280;66144;50.020;14.422;2023-03-01T13:53:46;99614.38;;;10.84;35.01
77171;BME280;66144;50.020;14.422;2023-03-01T13:56:27;99618.75;;;10.49;35.30
77171;BME280;66144;50.020;14.422;2023-03-01T13:58:54;99612.69;;;10.07;35.99
77171;BME280;66144;50.020;14.422;2023-03-01T14:01:25;99613.38;;;9.84;36.10
77171;BME280;66144;50.020;14.422;2023-03-01T14:03:50;99617.63;;;9.48;36.59
77171;BME280;66144;50.020;14.422;2023-03-01T14:06:20;99608.94;;;9.54;37.26
77171;BME280;66144;50.020;14.422;2023-03-01T14:08:48;99606.19;;;9.49;37.51
77171;BME280;66144;50.020;14.422;2023-03-01T14:14:36;99607.34;;;9.17;38.38
77171;BME280;66144;50.020;14.422;2023-03-01T14:17:27;99615.94;;;9.17;38.51
77171;BME280;66144;50.020;14.422;2023-03-01T14:19:58;99613.03;;;9.07;38.38
77171;BME280;66144;50.020;14.422;2023-03-01T14:22:25;99611.69;;;8.80;38.46
77171;BME280;66144;50.020;14.422;2023-03-01T14:25:02;99601.69;;;9.02;38.96
77171;BME280;66144;50.020;14.422;2023-03-01T14:27:36;99600.00;;;9.07;38.22
77171;BME280;66144;50.020;14.422;2023-03-01T14:30:12;99600.53;;;9.16;38.32
77171;BME280;66144;50.020;14.422;2023-03-01T14:32:40;99600.22;;;9.06;38.63
77171;BME280;66144;50.020;14.422;2023-03-01T14:35:21;99602.91;;;8.74;39.65
77171;BME280;66144;50.020;14.422;2023-03-01T14:37:48;99595.03;;;8.81;39.36
77171;BME280;66144;50.020;14.422;2023-03-01T14:40:29;99592.88;;;8.78;40.02
77171;BME280;66144;50.020;14.422;2023-03-01T14:42:59;99596.31;;;8.96;39.22
77171;BME280;66144;50.020;14.422;2023-03-01T14:45:27;99595.09;;;8.49;39.52